createdAt,value
2019-05-25T00:00:13.251Z,101486.17
2019-05-25T00:02:42.674Z,101487.47
2019-05-25T00:05:12.487Z,101477.80
2019-05-25T00:07:41.829Z,101474.70
2019-05-25T00:10:11.809Z,101482.59
2019-05-25T00:12:41.141Z,101479.47
2019-05-25T00:15:10.491Z,101479.04
2019-05-25T00:17:39.820Z,101472.88
2019-05-25T00:20:09.666Z,101483.31
2019-05-25T00:22:38.983Z,101483.30
2019-05-25T00:25:08.751Z,101482.38
2019-05-25T00:27:38.095Z,101478.84
2019-05-25T00:30:08.191Z,101482.73
2019-05-25T00:32:37.802Z,101485.31
2019-05-25T00:35:07.395Z,101483.97
2019-05-25T00:37:36.897Z,101482.19
2019-05-25T00:40:07.214Z,101482.62
2019-05-25T00:42:36.558Z,101480.03
2019-05-25T00:45:07.723Z,101484.84
2019-05-25T00:47:37.294Z,101485.28
2019-05-25T00:50:07.765Z,101479.11
2019-05-25T00:52:37.096Z,101476.90
2019-05-25T00:55:08.238Z,101476.87
2019-05-25T00:57:37.527Z,101481.19
2019-05-25T01:00:10.764Z,101475.86
2019-05-25T01:02:41.239Z,101478.90
2019-05-25T01:05:11.008Z,101481.97
2019-05-25T01:07:40.597Z,101481.93
2019-05-25T01:10:10.857Z,101475.39
2019-05-25T01:12:40.178Z,101472.33
2019-05-25T01:15:12.554Z,101473.61
2019-05-25T01:17:41.877Z,101474.02
2019-05-25T01:20:11.948Z,101472.70
2019-05-25T01:22:41.285Z,101477.98
2019-05-25T01:25:11.349Z,101477.08
2019-05-25T01:27:40.683Z,101477.01
2019-05-25T01:30:11.522Z,101479.20
2019-05-25T01:32:40.859Z,101474.34
2019-05-25T01:35:10.809Z,101478.25
2019-05-25T01:37:40.192Z,101482.59
2019-05-25T01:40:11.264Z,101486.53
2019-05-25T01:42:40.599Z,101482.11
2019-05-25T01:45:10.796Z,101477.70
2019-05-25T01:47:40.134Z,101488.61
2019-05-25T01:50:09.894Z,101489.48
2019-05-25T01:52:39.228Z,101488.56
2019-05-25T01:55:08.997Z,101487.69
2019-05-25T01:57:38.341Z,101488.96
2019-05-25T02:00:08.984Z,101495.95
2019-05-25T02:02:38.321Z,101496.80
2019-05-25T02:05:08.446Z,101493.25
2019-05-25T02:07:37.785Z,101490.14
2019-05-25T02:10:11.533Z,101499.73
2019-05-25T02:12:40.939Z,101494.47
2019-05-25T02:15:11.136Z,101500.05
2019-05-25T02:17:41.453Z,101496.97
2019-05-25T02:20:11.327Z,101506.95
2019-05-25T02:22:40.667Z,101503.40
2019-05-25T02:25:18.891Z,101507.34
2019-05-25T02:27:41.780Z,101501.60
2019-05-25T02:30:12.694Z,101505.97
2019-05-25T02:32:42.010Z,101502.38
2019-05-25T02:35:17.496Z,101501.89
2019-05-25T02:37:47.213Z,101499.70
2019-05-25T02:40:16.711Z,101504.45
2019-05-25T02:42:46.060Z,101500.47
2019-05-25T02:45:15.384Z,101506.11
2019-05-25T02:47:44.728Z,101509.12
2019-05-25T02:50:14.292Z,101507.31
2019-05-25T02:52:43.624Z,101505.52
2019-05-25T02:55:13.697Z,101515.08
2019-05-25T02:57:43.029Z,101515.45
2019-05-25T03:00:12.703Z,101522.44
2019-05-25T03:02:42.071Z,101525.08
2019-05-25T03:05:14.772Z,101528.08
2019-05-25T03:07:45.715Z,101529.34
2019-05-25T03:10:15.582Z,101525.39
2019-05-25T03:12:44.994Z,101534.14
2019-05-25T03:15:14.760Z,101532.83
2019-05-25T03:17:44.089Z,101527.53
2019-05-25T03:20:13.877Z,101530.14
2019-05-25T03:22:43.210Z,101533.64
2019-05-25T03:25:12.796Z,101529.22
2019-05-25T03:27:42.130Z,101533.56
2019-05-25T03:30:12.014Z,101530.91
2019-05-25T03:32:41.336Z,101530.84
2019-05-25T03:35:10.889Z,101532.15
2019-05-25T03:37:40.193Z,101530.78
2019-05-25T03:40:10.567Z,101532.52
2019-05-25T03:42:39.902Z,101533.34
2019-05-25T03:45:09.414Z,101540.33
2019-05-25T03:47:38.748Z,101538.58
2019-05-25T03:50:08.523Z,101537.64
2019-05-25T03:52:37.859Z,101532.34
2019-05-25T03:55:07.740Z,101539.32
2019-05-25T03:57:37.085Z,101540.52
2019-05-25T04:00:10.164Z,101549.23
2019-05-25T04:02:39.539Z,101546.11
2019-05-25T04:05:08.919Z,101552.16
2019-05-25T04:07:38.517Z,101556.89
2019-05-25T04:10:08.190Z,101562.96
2019-05-25T04:12:37.846Z,101560.39
2019-05-25T04:15:08.122Z,101567.89
2019-05-25T04:17:37.456Z,101563.61
2019-05-25T04:20:08.345Z,101564.16
2019-05-25T04:22:38.012Z,101570.84
2019-05-25T04:25:07.753Z,101567.42
2019-05-25T04:27:37.091Z,101562.25
2019-05-25T04:30:06.977Z,101563.17
2019-05-25T04:32:36.479Z,101568.05
2019-05-25T04:35:06.471Z,101562.42
2019-05-25T04:37:35.797Z,101572.06
2019-05-25T04:40:06.491Z,101575.61
2019-05-25T04:42:35.836Z,101571.30
2019-05-25T04:45:07.491Z,101578.38
2019-05-25T04:47:36.835Z,101578.48
2019-05-25T04:50:06.716Z,101582.05
2019-05-25T04:52:36.225Z,101581.73
2019-05-25T04:55:06.513Z,101580.09
2019-05-25T04:57:35.862Z,101581.52
2019-05-25T05:00:10.068Z,101589.02
2019-05-25T05:02:39.388Z,101588.63
2019-05-25T05:05:08.891Z,101593.11
2019-05-25T05:07:38.236Z,101590.16
2019-05-25T05:10:08.312Z,101588.51
2019-05-25T05:12:37.666Z,101583.34
2019-05-25T05:15:07.527Z,101586.02
2019-05-25T05:17:36.870Z,101584.80
2019-05-25T05:20:08.442Z,101586.13
2019-05-25T05:22:37.791Z,101585.77
2019-05-25T05:25:09.018Z,101585.77
2019-05-25T05:27:39.188Z,101584.52
2019-05-25T05:30:09.759Z,101580.19
2019-05-25T05:32:39.335Z,101580.70
2019-05-25T05:35:10.013Z,101574.62
2019-05-25T05:37:41.782Z,101576.45
2019-05-25T05:40:11.658Z,101577.38
2019-05-25T05:42:43.203Z,101577.41
2019-05-25T05:45:13.780Z,101583.20
2019-05-25T05:47:46.794Z,101586.37
2019-05-25T05:50:17.869Z,101577.69
2019-05-25T05:52:50.990Z,101579.55
2019-05-25T05:55:23.372Z,101583.56
2019-05-25T05:57:52.709Z,101584.50
2019-05-25T06:00:22.665Z,101589.39
2019-05-25T06:02:51.979Z,101592.55
2019-05-25T06:05:21.300Z,101591.77
2019-05-25T06:07:50.631Z,101590.09
2019-05-25T06:10:20.297Z,101596.29
2019-05-25T06:12:49.802Z,101599.84
2019-05-25T06:15:19.370Z,101596.41
2019-05-25T06:17:48.701Z,101596.42
2019-05-25T06:20:18.208Z,101592.92
2019-05-25T06:22:47.543Z,101598.25
2019-05-25T06:25:16.951Z,101597.83
2019-05-25T06:27:46.594Z,101594.81
2019-05-25T06:30:17.787Z,101597.06
2019-05-25T06:32:47.121Z,101600.58
2019-05-25T06:35:16.985Z,101601.92
2019-05-25T06:37:46.389Z,101597.54
2019-05-25T06:40:17.463Z,101605.49
2019-05-25T06:42:47.112Z,101605.47
2019-05-25T06:45:16.891Z,101615.18
2019-05-25T06:47:46.245Z,101602.43
2019-05-25T06:50:17.989Z,101613.48
2019-05-25T06:52:47.338Z,101621.42
2019-05-25T06:55:16.742Z,101613.06
2019-05-25T06:57:46.070Z,101619.22
2019-05-25T07:00:16.262Z,101620.53
2019-05-25T07:02:45.586Z,101623.64
2019-05-25T07:05:15.061Z,101624.52
2019-05-25T07:07:44.392Z,101625.82
2019-05-25T07:10:14.063Z,101629.81
2019-05-25T07:12:43.387Z,101626.30
2019-05-25T07:15:14.650Z,101624.11
2019-05-25T07:17:44.212Z,101622.34
2019-05-25T07:20:15.479Z,101622.33
2019-05-25T07:22:44.804Z,101623.20
2019-05-25T07:25:14.566Z,101628.51
2019-05-25T07:27:58.126Z,101626.30
2019-05-25T07:30:15.566Z,101625.41
2019-05-25T07:32:45.057Z,101621.47
2019-05-25T07:35:16.073Z,101628.05
2019-05-25T07:37:45.668Z,101632.91
2019-05-25T07:40:15.929Z,101629.80
2019-05-25T07:42:45.626Z,101625.84
2019-05-25T07:45:15.391Z,101630.70
2019-05-25T07:47:45.032Z,101630.70
2019-05-25T07:50:15.193Z,101627.61
2019-05-25T07:52:44.516Z,101633.78
2019-05-25T07:55:13.916Z,101628.48
2019-05-25T07:57:43.481Z,101634.64
2019-05-25T08:00:13.561Z,101633.75
2019-05-25T08:02:42.954Z,101635.03
2019-05-25T08:05:13.470Z,101639.91
2019-05-25T08:07:42.815Z,101637.70
2019-05-25T08:10:12.674Z,101646.05
2019-05-25T08:12:42.070Z,101638.11
2019-05-25T08:15:11.938Z,101638.51
2019-05-25T08:17:41.268Z,101638.94
2019-05-25T08:20:11.059Z,101640.68
2019-05-25T08:22:40.380Z,101640.22
2019-05-25T08:25:10.453Z,101639.30
2019-05-25T08:27:39.796Z,101644.13
2019-05-25T08:30:09.368Z,101641.92
2019-05-25T08:32:38.694Z,101642.33
2019-05-25T08:35:09.351Z,101638.34
2019-05-25T08:37:38.848Z,101642.31
2019-05-25T08:40:08.926Z,101645.39
2019-05-25T08:42:38.257Z,101648.88
2019-05-25T08:45:08.624Z,101647.09
2019-05-25T08:47:38.128Z,101643.13
2019-05-25T08:50:08.338Z,101640.88
2019-05-25T08:52:38.458Z,101646.96
2019-05-25T08:55:08.354Z,101645.63
2019-05-25T08:57:37.691Z,101645.58
2019-05-25T09:00:07.848Z,101639.85
2019-05-25T09:02:37.186Z,101639.84
2019-05-25T09:05:08.195Z,101642.92
2019-05-25T09:07:37.524Z,101639.41
2019-05-25T09:10:07.788Z,101638.09
2019-05-25T09:12:37.448Z,101635.91
2019-05-25T09:15:07.861Z,101638.54
2019-05-25T09:17:37.353Z,101634.55
2019-05-25T09:20:08.024Z,101638.92
2019-05-25T09:22:37.345Z,101634.48
2019-05-25T09:25:08.390Z,101640.69
2019-05-25T09:27:38.085Z,101634.91
2019-05-25T09:30:08.569Z,101640.16
2019-05-25T09:32:38.171Z,101635.69
2019-05-25T09:35:08.580Z,101632.10
2019-05-25T09:37:37.901Z,101636.89
2019-05-25T09:40:08.165Z,101633.72
2019-05-25T09:42:37.774Z,101631.41
2019-05-25T09:45:08.114Z,101635.73
2019-05-25T09:47:37.813Z,101639.30
2019-05-25T09:50:07.468Z,101636.60
2019-05-25T09:52:36.798Z,101642.31
2019-05-25T09:55:08.782Z,101635.18
2019-05-25T09:57:41.411Z,101638.63
2019-05-25T10:00:13.234Z,101638.89
2019-05-25T10:02:43.499Z,101637.33
2019-05-25T10:05:14.279Z,101645.12
2019-05-25T10:07:43.626Z,101647.16
2019-05-25T10:10:13.394Z,101639.48
2019-05-25T10:12:42.722Z,101646.95
2019-05-25T10:15:12.420Z,101646.92
2019-05-25T10:17:41.783Z,101642.77
2019-05-25T10:20:11.885Z,101643.94
2019-05-25T10:22:41.223Z,101639.45
2019-05-25T10:25:12.288Z,101648.27
2019-05-25T10:27:41.620Z,101645.22
2019-05-25T10:30:11.328Z,101649.12
2019-05-25T10:32:41.022Z,101640.55
2019-05-25T10:35:10.662Z,101644.45
2019-05-25T10:37:39.987Z,101641.88
2019-05-25T10:40:09.655Z,101641.84
2019-05-25T10:42:38.988Z,101641.95
2019-05-25T10:45:09.447Z,101643.44
2019-05-25T10:47:39.057Z,101641.47
2019-05-25T10:50:10.345Z,101647.16
2019-05-25T10:52:39.711Z,101643.89
2019-05-25T10:55:10.080Z,101640.25
2019-05-25T10:57:39.456Z,101639.59
2019-05-25T11:00:10.821Z,101637.90
2019-05-25T11:02:40.176Z,101642.07
2019-05-25T11:05:10.651Z,101641.39
2019-05-25T11:07:40.014Z,101640.78
2019-05-25T11:10:09.967Z,101638.77
2019-05-25T11:12:39.651Z,101634.99
2019-05-25T11:15:09.523Z,101630.23
2019-05-25T11:17:38.860Z,101628.42
2019-05-25T11:20:09.318Z,101621.59
2019-05-25T11:22:38.828Z,101619.55
2019-05-25T11:25:10.430Z,101621.36
2019-05-25T11:27:39.929Z,101621.52
2019-05-25T11:30:10.474Z,101620.02
2019-05-25T11:32:39.897Z,101623.39
2019-05-25T11:35:09.530Z,101623.09
2019-05-25T11:37:38.862Z,101627.10
2019-05-25T11:40:09.139Z,101617.56
2019-05-25T11:42:38.463Z,101619.48
2019-05-25T11:45:08.834Z,101620.20
2019-05-25T11:47:38.413Z,101621.36
2019-05-25T11:50:10.233Z,101616.20
2019-05-25T11:52:39.600Z,101612.67
2019-05-25T11:55:09.879Z,101618.84
2019-05-25T11:57:39.206Z,101622.23
2019-05-25T12:00:23.716Z,101614.28
2019-05-25T12:02:41.065Z,101614.43
2019-05-25T12:05:11.975Z,101619.60
2019-05-25T12:07:44.517Z,101611.41
2019-05-25T12:10:14.165Z,101616.44
2019-05-25T12:12:43.500Z,101616.94
2019-05-25T12:15:14.275Z,101613.33
2019-05-25T12:17:43.606Z,101606.84
2019-05-25T12:20:13.687Z,101610.69
2019-05-25T12:22:43.023Z,101603.96
2019-05-25T12:25:13.006Z,101601.52
2019-05-25T12:27:42.337Z,101610.53
2019-05-25T12:30:12.313Z,101607.36
2019-05-25T12:32:41.644Z,101607.04
2019-05-25T12:35:11.312Z,101602.61
2019-05-25T12:37:40.627Z,101600.88
2019-05-25T12:40:10.607Z,101598.86
2019-05-25T12:42:40.199Z,101598.02
2019-05-25T12:45:09.868Z,101588.00
2019-05-25T12:47:39.514Z,101589.59
2019-05-25T12:50:09.188Z,101583.42
2019-05-25T12:52:38.756Z,101590.64
2019-05-25T12:55:08.549Z,101590.28
2019-05-25T12:57:37.872Z,101590.28
2019-05-25T13:00:15.541Z,101589.59
2019-05-25T13:02:39.318Z,101582.32
2019-05-25T13:05:09.117Z,101585.23
2019-05-25T13:07:38.439Z,101587.94
2019-05-25T13:10:08.309Z,101582.56
2019-05-25T13:12:37.640Z,101582.25
2019-05-25T13:15:07.498Z,101575.95
2019-05-25T13:17:37.084Z,101569.66
2019-05-25T13:20:06.860Z,101574.08
2019-05-25T13:22:36.184Z,101575.32
2019-05-25T13:25:10.235Z,101577.69
2019-05-25T13:27:39.530Z,101572.81
2019-05-25T13:30:09.501Z,101567.16
2019-05-25T13:32:38.828Z,101566.63
2019-05-25T13:35:08.636Z,101562.20
2019-05-25T13:37:37.924Z,101580.67
2019-05-25T13:40:09.361Z,101568.32
2019-05-25T13:42:38.759Z,101564.17
2019-05-25T13:45:09.219Z,101561.84
2019-05-25T13:47:38.548Z,101560.19
2019-05-25T13:50:09.120Z,101569.06
2019-05-25T13:52:38.440Z,101561.45
2019-05-25T13:55:08.883Z,101563.22
2019-05-25T13:57:38.473Z,101568.25
2019-05-25T14:00:08.683Z,101568.98
2019-05-25T14:02:38.095Z,101534.50
2019-05-25T14:05:08.954Z,101557.83
2019-05-25T14:07:39.409Z,101548.20
2019-05-25T14:10:09.647Z,101558.68
2019-05-25T14:12:38.965Z,101545.78
2019-05-25T14:15:09.269Z,101545.78
2019-05-25T14:17:39.042Z,101555.42
2019-05-25T14:20:09.410Z,101555.42
2019-05-25T14:22:38.738Z,101555.02
2019-05-25T14:25:09.946Z,101551.18
2019-05-25T14:27:39.296Z,101550.60
2019-05-25T14:30:09.569Z,101545.39
2019-05-25T14:32:38.967Z,101543.42
2019-05-25T14:35:08.759Z,101543.05
2019-05-25T14:37:38.159Z,101543.80
2019-05-25T14:40:11.411Z,101536.41
2019-05-25T14:42:40.112Z,101528.54
2019-05-25T14:45:10.468Z,101528.20
2019-05-25T14:47:39.802Z,101525.71
2019-05-25T14:50:09.962Z,101527.30
2019-05-25T14:52:42.871Z,101529.67
2019-05-25T14:55:10.978Z,101522.88
2019-05-25T14:57:40.318Z,101526.50
2019-05-25T15:00:11.852Z,101519.44
2019-05-25T15:02:41.520Z,101514.05
2019-05-25T15:05:11.181Z,101528.35
2019-05-25T15:07:40.517Z,101532.27
2019-05-25T15:10:10.382Z,101531.44
2019-05-25T15:12:39.717Z,101526.32
2019-05-25T15:15:10.283Z,101523.38
2019-05-25T15:17:42.724Z,101519.78
2019-05-25T15:20:11.457Z,101526.13
2019-05-25T15:22:40.977Z,101523.62
2019-05-25T15:25:10.862Z,101527.72
2019-05-25T15:27:40.198Z,101533.06
2019-05-25T15:30:09.761Z,101533.50
2019-05-25T15:32:39.105Z,101531.25
2019-05-25T15:35:08.554Z,101531.67
2019-05-25T15:37:37.883Z,101531.11
2019-05-25T15:40:11.239Z,101529.67
2019-05-25T15:42:40.637Z,101530.88
2019-05-25T15:45:10.407Z,101530.44
2019-05-25T15:47:39.801Z,101517.81
2019-05-25T15:50:11.333Z,101518.40
2019-05-25T15:52:41.631Z,101517.06
2019-05-25T15:55:11.136Z,101529.16
2019-05-25T15:57:40.526Z,101510.59
2019-05-25T16:00:11.396Z,101509.20
2019-05-25T16:02:40.857Z,101507.20
2019-05-25T16:05:10.629Z,101498.23
2019-05-25T16:07:43.431Z,101499.05
2019-05-25T16:10:13.106Z,101499.56
2019-05-25T16:12:42.435Z,101494.31
2019-05-25T16:15:11.823Z,101498.23
2019-05-25T16:17:42.220Z,101496.59
2019-05-25T16:20:11.629Z,101495.01
2019-05-25T16:22:41.007Z,101495.30
2019-05-25T16:25:10.407Z,101494.91
2019-05-25T16:27:41.164Z,101497.87
2019-05-25T16:30:10.932Z,101503.16
2019-05-25T16:33:10.160Z,101497.30
2019-05-25T16:35:11.506Z,101502.08
2019-05-25T16:37:41.107Z,101501.13
2019-05-25T16:40:10.876Z,101499.27
2019-05-25T16:42:40.211Z,101494.83
2019-05-25T16:45:10.275Z,101492.63
2019-05-25T16:47:39.605Z,101486.12
2019-05-25T16:50:14.548Z,101489.98
2019-05-25T16:52:41.771Z,101485.81
2019-05-25T16:55:11.515Z,101488.48
2019-05-25T16:57:41.066Z,101488.12
2019-05-25T17:00:10.836Z,101483.23
2019-05-25T17:02:40.170Z,101487.81
2019-05-25T17:05:09.902Z,101484.48
2019-05-25T17:07:39.468Z,101484.11
2019-05-25T17:10:08.971Z,101473.22
2019-05-25T17:12:38.296Z,101477.31
2019-05-25T17:15:07.907Z,101474.91
2019-05-25T17:17:37.467Z,101478.63
2019-05-25T17:20:07.355Z,101476.87
2019-05-25T17:22:36.713Z,101479.68
2019-05-25T17:25:07.759Z,101483.30
2019-05-25T17:27:37.092Z,101477.64
2019-05-25T17:30:07.980Z,101478.28
2019-05-25T17:32:37.308Z,101481.29
2019-05-25T17:35:06.975Z,101481.86
2019-05-25T17:37:36.391Z,101484.17
2019-05-25T17:40:07.627Z,101495.33
2019-05-25T17:42:37.201Z,101497.19
2019-05-25T17:45:06.996Z,101499.08
2019-05-25T17:47:36.294Z,101496.09
2019-05-25T17:50:06.861Z,101498.84
2019-05-25T17:52:36.265Z,101500.17
2019-05-25T17:55:07.350Z,101499.48
2019-05-25T17:57:37.037Z,101495.74
2019-05-25T18:00:09.386Z,101494.48
2019-05-25T18:02:38.710Z,101501.74
2019-05-25T18:05:08.585Z,101502.81
2019-05-25T18:07:38.162Z,101498.08
2019-05-25T18:10:08.230Z,101494.69
2019-05-25T18:12:37.632Z,101495.34
2019-05-25T18:15:09.348Z,101503.98
2019-05-25T18:17:38.692Z,101506.38
2019-05-25T18:20:10.427Z,101499.62
2019-05-25T18:22:39.817Z,101499.30
2019-05-25T18:25:09.279Z,101497.70
2019-05-25T18:27:39.580Z,101494.13
2019-05-25T18:30:11.776Z,101497.77
2019-05-25T18:32:41.116Z,101503.02
2019-05-25T18:35:10.504Z,101510.34
2019-05-25T18:37:39.878Z,101508.30
2019-05-25T18:40:10.738Z,101503.56
2019-05-25T18:42:40.067Z,101501.05
2019-05-25T18:45:10.534Z,101503.75
2019-05-25T18:47:39.940Z,101499.36
2019-05-25T18:50:10.707Z,101502.02
2019-05-25T18:52:40.036Z,101503.25
2019-05-25T18:55:10.016Z,101508.11
2019-05-25T18:57:39.346Z,101508.93
2019-05-25T19:00:09.499Z,101503.81
2019-05-25T19:02:39.202Z,101506.15
2019-05-25T19:05:09.053Z,101508.45
2019-05-25T19:07:38.494Z,101507.83
2019-05-25T19:10:10.266Z,101509.75
2019-05-25T19:12:39.616Z,101510.84
2019-05-25T19:15:09.863Z,101515.88
2019-05-25T19:17:40.368Z,101516.84
2019-05-25T19:20:10.094Z,101520.91
2019-05-25T19:22:39.725Z,101519.62
2019-05-25T19:25:09.399Z,101517.97
2019-05-25T19:27:39.931Z,101512.79
2019-05-25T19:30:11.080Z,101512.95
2019-05-25T19:32:40.498Z,101517.58
2019-05-25T19:35:10.681Z,101515.05
2019-05-25T19:37:42.471Z,101518.26
2019-05-25T19:40:11.456Z,101521.06
2019-05-25T19:42:41.196Z,101520.74
2019-05-25T19:45:11.084Z,101532.81
2019-05-25T19:47:40.414Z,101531.58
2019-05-25T19:50:10.082Z,101544.94
2019-05-25T19:52:39.649Z,101540.17
2019-05-25T19:55:09.245Z,101540.66
2019-05-25T19:57:38.576Z,101545.14
2019-05-25T20:00:08.641Z,101547.03
2019-05-25T20:02:38.063Z,101551.96
2019-05-25T20:05:16.563Z,101559.11
2019-05-25T20:07:39.260Z,101561.94
2019-05-25T20:10:09.352Z,101562.08
2019-05-25T20:12:38.698Z,101561.31
2019-05-25T20:15:10.065Z,101558.31
2019-05-25T20:17:39.467Z,101557.42
2019-05-25T20:20:10.139Z,101559.25
2019-05-25T20:22:39.474Z,101567.65
2019-05-25T20:25:10.382Z,101561.50
2019-05-25T20:27:39.710Z,101565.47
2019-05-25T20:30:09.286Z,101557.96
2019-05-25T20:32:38.601Z,101561.50
2019-05-25T20:35:08.905Z,101568.56
2019-05-25T20:37:38.229Z,101567.72
2019-05-25T20:40:08.224Z,101568.63
2019-05-25T20:42:38.581Z,101569.48
2019-05-25T20:45:09.353Z,101565.10
2019-05-25T20:47:38.915Z,101565.10
2019-05-25T20:50:08.791Z,101564.27
2019-05-25T20:52:38.118Z,101564.25
2019-05-25T20:55:07.916Z,101568.67
2019-05-25T20:57:37.248Z,101568.25
2019-05-25T21:00:07.193Z,101559.87
2019-05-25T21:02:37.032Z,101569.98
2019-05-25T21:05:07.110Z,101554.11
2019-05-25T21:07:36.685Z,101550.61
2019-05-25T21:10:07.656Z,101560.77
2019-05-25T21:12:36.983Z,101556.41
2019-05-25T21:15:08.662Z,101558.20
2019-05-25T21:17:38.116Z,101558.25
2019-05-25T21:20:08.629Z,101562.23
2019-05-25T21:22:39.491Z,101569.77
2019-05-25T21:25:09.344Z,101568.90
2019-05-25T21:27:38.667Z,101570.27
2019-05-25T21:30:09.325Z,101571.16
2019-05-25T21:32:38.647Z,101567.23
2019-05-25T21:35:09.334Z,101561.49
2019-05-25T21:37:38.906Z,101559.78
2019-05-25T21:40:09.562Z,101560.21
2019-05-25T21:42:38.887Z,101555.41
2019-05-25T21:45:09.627Z,101562.04
2019-05-25T21:47:38.956Z,101558.53
2019-05-25T21:50:09.425Z,101559.86
2019-05-25T21:52:38.764Z,101561.62
2019-05-25T21:55:08.739Z,101558.55
2019-05-25T21:57:38.072Z,101560.75
2019-05-25T22:00:10.894Z,101553.27
2019-05-25T22:02:40.558Z,101551.51
2019-05-25T22:05:10.531Z,101551.07
2019-05-25T22:07:40.314Z,101542.70
2019-05-25T22:10:10.791Z,101542.22
2019-05-25T22:12:40.714Z,101537.38
2019-05-25T22:15:12.016Z,101538.24
2019-05-25T22:17:41.336Z,101532.98
2019-05-25T22:20:12.311Z,101531.63
2019-05-25T22:22:41.655Z,101522.38
2019-05-25T22:25:11.287Z,101526.34
2019-05-25T22:27:40.618Z,101530.26
2019-05-25T22:30:10.371Z,101518.83
2019-05-25T22:32:39.719Z,101522.34
2019-05-25T22:35:09.266Z,101520.55
2019-05-25T22:37:38.651Z,101521.86
2019-05-25T22:40:09.110Z,101523.58
2019-05-25T22:42:38.724Z,101516.11
2019-05-25T22:45:08.701Z,101520.05
2019-05-25T22:47:38.035Z,101516.95
2019-05-25T22:50:07.804Z,101521.34
2019-05-25T22:52:37.248Z,101516.03
2019-05-25T22:55:07.717Z,101512.06
2019-05-25T22:57:37.055Z,101509.88
2019-05-25T23:00:08.428Z,101512.48
2019-05-25T23:02:37.799Z,101511.58
2019-05-25T23:05:07.659Z,101508.10
2019-05-25T23:07:36.974Z,101510.72
2019-05-25T23:10:08.586Z,101501.89
2019-05-25T23:12:38.320Z,101503.63
2019-05-25T23:15:08.715Z,101506.23
2019-05-25T23:17:38.231Z,101501.85
2019-05-25T23:20:08.602Z,101497.90
2019-05-25T23:22:37.937Z,101500.53
2019-05-25T23:25:09.478Z,101498.34
2019-05-25T23:27:38.820Z,101497.02
2019-05-25T23:30:08.688Z,101494.86
2019-05-25T23:32:38.061Z,101498.80
2019-05-25T23:35:08.530Z,101494.83
2019-05-25T23:37:37.867Z,101492.99
2019-05-25T23:40:07.825Z,101495.25
2019-05-25T23:42:37.163Z,101494.75
2019-05-25T23:45:09.684Z,101489.05
2019-05-25T23:47:39.090Z,101495.61
2019-05-25T23:50:08.753Z,101488.59
2019-05-25T23:52:38.082Z,101487.25
2019-05-25T23:55:08.180Z,101491.14
2019-05-25T23:57:37.526Z,101482.78
